Time;durP1;ratioP1;P1;durP2;ratioP2;P2;SDS_P1;SDS_P2;PMS_P1;PMS_P2;Temp;Humidity;BMP_temperature;BMP_pressure;BME280_temperature;BME280_humidity;BME280_pressure;Samples;Min_cycle;Max_cycle;Signal;HPM_P1;HPM_P2
2021/12/29 00:00:10;;;;;;;8.90;5.80;;;;;;;-5.19;80.63;101814.59;5012296;28;20390;-59
2021/12/29 00:02:35;;;;;;;6.38;5.20;;;;;;;-5.24;80.10;101805.19;5014690;28;20042;-59
2021/12/29 00:05:01;;;;;;;6.37;5.23;;;;;;;-5.25;80.43;101804.31;5015991;28;20409;-56
2021/12/29 00:07:28;;;;;;;5.93;5.40;;;;;;;-5.13;80.64;101819.63;5019290;28;20034;-56
2021/12/29 00:09:55;;;;;;;6.27;5.43;;;;;;;-5.13;80.43;101824.81;5018515;28;20185;-59
2021/12/29 00:12:25;;;;;;;8.32;5.43;;;;;;;-5.19;80.38;101813.75;5018557;28;20050;-59
2021/12/29 00:14:52;;;;;;;6.22;4.78;;;;;;;-5.34;80.58;101795.03;5015567;28;20472;-60
2021/12/29 00:17:18;;;;;;;8.82;5.78;;;;;;;-5.26;81.09;101804.38;5015795;28;20048;-57
2021/12/29 00:19:44;;;;;;;6.20;5.47;;;;;;;-5.20;81.22;101819.81;5015898;28;20159;-59
2021/12/29 00:22:09;;;;;;;6.20;5.10;;;;;;;-5.21;80.41;101815.50;5015329;28;20041;-54
2021/12/29 00:24:35;;;;;;;6.23;5.10;;;;;;;-5.21;80.64;101820.69;5016067;28;20501;-57
2021/12/29 00:27:00;;;;;;;7.47;5.97;;;;;;;-5.19;80.56;101814.59;5018371;28;20453;-59
2021/12/29 00:29:26;;;;;;;7.63;5.57;;;;;;;-5.44;80.58;101766.72;5018578;28;20101;-60
2021/12/29 00:31:51;;;;;;;6.67;5.03;;;;;;;-5.16;80.53;101809.31;5018637;28;20041;-59
2021/12/29 00:34:17;;;;;;;6.90;4.67;;;;;;;-5.10;80.40;101806.56;5014947;28;20034;-59
2021/12/29 00:36:42;;;;;;;7.90;6.07;;;;;;;-5.14;80.37;101804.09;5015278;28;20080;-58
2021/12/29 00:39:08;;;;;;;6.40;5.70;;;;;;;-5.25;79.85;101796.53;5015246;28;20034;-58
2021/12/29 00:41:34;;;;;;;8.57;5.67;;;;;;;-5.24;79.78;101794.78;5014736;28;20064;-59
2021/12/29 00:43:59;;;;;;;7.80;5.30;;;;;;;-5.39;80.33;101776.09;5015070;28;20049;-59
2021/12/29 00:46:25;;;;;;;7.37;5.30;;;;;;;-5.27;80.41;101797.47;5015003;28;20068;-57
2021/12/29 00:48:51;;;;;;;6.47;5.30;;;;;;;-5.49;80.88;101758.16;5014913;28;20077;-57
2021/12/29 00:51:19;;;;;;;6.63;4.90;;;;;;;-5.31;80.62;101776.78;5015058;28;20046;-57
2021/12/29 00:53:44;;;;;;;10.75;4.55;;;;;;;-5.36;80.81;101772.59;5015129;28;20042;-58
2021/12/29 00:56:10;;;;;;;6.57;5.00;;;;;;;-5.27;80.73;101787.06;5030167;28;20045;-61
2021/12/29 00:58:35;;;;;;;9.10;5.07;;;;;;;-5.48;80.75;101755.56;5014671;28;20069;-59
2021/12/29 01:01:02;;;;;;;6.30;5.67;;;;;;;-5.34;81.26;101786.38;5014893;28;20069;-60
2021/12/29 01:03:28;;;;;;;7.25;5.88;;;;;;;-5.44;80.77;101753.75;5014458;28;20040;-57
2021/12/29 01:05:54;;;;;;;7.07;5.27;;;;;;;-5.38;80.82;101772.63;5014679;28;20037;-59
2021/12/29 01:08:23;;;;;;;6.55;4.18;;;;;;;-5.26;80.30;101775.78;5014113;28;20452;-56
2021/12/29 01:10:50;;;;;;;10.07;5.22;;;;;;;-5.31;80.22;101768.97;5014712;28;20119;-54
2021/12/29 01:13:19;;;;;;;4.17;3.67;;;;;;;-5.23;80.34;101786.09;5013139;28;20486;-58
2021/12/29 01:15:58;;;;;;;7.45;5.18;;;;;;;-5.31;80.31;101768.97;5012729;28;20030;-62
2021/12/29 01:18:28;;;;;;;;;;;;;;;-5.19;79.23;101782.56;5014630;28;20125;-58
2021/12/29 01:20:54;;;;;;;6.43;4.90;;;;;;;-5.54;79.73;101724.53;5014898;28;19917;-59
2021/12/29 01:23:21;;;;;;;6.20;4.97;;;;;;;-5.35;79.59;101769.94;5014350;28;20136;-59
2021/12/29 01:25:46;;;;;;;6.85;5.43;;;;;;;-5.36;79.65;101773.44;5014153;28;20040;-57
2021/12/29 01:28:12;;;;;;;5.47;4.40;;;;;;;-5.34;79.40;101778.59;5014007;28;20041;-59
2021/12/29 01:30:38;;;;;;;6.77;5.03;;;;;;;-5.78;79.12;101699.16;5014061;28;20121;-57
2021/12/29 01:33:06;;;;;;;6.70;5.17;;;;;;;-5.44;79.37;101762.38;5014414;28;20462;-62
2021/12/29 01:35:36;;;;;;;5.43;3.67;;;;;;;-5.40;78.94;101769.22;5014082;28;20034;-59
2021/12/29 01:38:02;;;;;;;8.00;5.30;;;;;;;-5.49;79.01;101766.84;5013662;28;20038;-61
2021/12/29 01:40:28;;;;;;;5.90;4.15;;;;;;;-5.49;78.91;101759.06;5013834;28;20040;-56
2021/12/29 01:42:55;;;;;;;6.57;4.93;;;;;;;-5.47;79.17;101770.25;5014000;28;20026;-61
2021/12/29 01:45:21;;;;;;;7.57;4.68;;;;;;;-5.57;79.24;101758.34;5014123;28;20269;-59
2021/12/29 01:47:48;;;;;;;5.18;4.60;;;;;;;-5.63;79.24;101751.56;5013899;28;20042;-62
2021/12/29 01:50:18;;;;;;;7.13;5.50;;;;;;;-5.64;78.66;101755.06;4979669;28;20038;-58
2021/12/29 01:52:53;;;;;;;6.05;4.95;;;;;;;-5.61;79.28;101769.72;5028469;28;20042;-60
2021/12/29 01:55:19;;;;;;;5.82;5.20;;;;;;;-5.74;78.71;101744.94;5028625;28;20034;-57
2021/12/29 01:57:45;;;;;;;9.48;6.70;;;;;;;-5.72;79.08;101772.56;5013291;28;20076;-55
2021/12/29 02:00:15;;;;;;;6.60;5.70;;;;;;;-5.86;78.89;101742.59;4996005;28;20485;-56
2021/12/29 02:02:42;;;;;;;7.32;6.13;;;;;;;-5.71;78.66;101768.22;5013468;28;20030;-59
2021/12/29 02:05:08;;;;;;;5.10;4.60;;;;;;;-5.79;78.64;101770.09;4996055;28;20041;-58
2021/12/29 02:07:34;;;;;;;7.57;5.88;;;;;;;-5.90;78.93;101748.78;5013314;28;20095;-63
2021/12/29 02:10:01;;;;;;;6.97;4.95;;;;;;;-5.96;79.21;101742.00;4995393;28;20070;-56
2021/12/29 02:12:26;;;;;;;6.70;5.38;;;;;;;-5.94;79.02;101760.97;4995754;28;20056;-59
2021/12/29 02:14:52;;;;;;;5.17;4.77;;;;;;;-5.95;79.22;101752.34;5013533;28;20489;-57
2021/12/29 02:17:18;;;;;;;5.67;5.07;;;;;;;-5.96;78.84;101753.22;5013367;28;20124;-60
2021/12/29 02:19:46;;;;;;;6.60;4.83;;;;;;;-6.14;79.39;101732.88;5012995;28;20401;-56
2021/12/29 02:22:28;;;;;;;6.05;4.18;;;;;;;-6.11;79.67;101726.75;5013314;28;20497;-58
2021/12/29 02:25:06;;;;;;;5.70;4.93;;;;;;;-6.31;79.75;101693.50;5028082;28;20049;-59
2021/12/29 02:27:34;;;;;;;6.38;5.45;;;;;;;-6.03;79.59;101736.09;5013151;28;20068;-56
2021/12/29 02:30:01;;;;;;;5.15;4.60;;;;;;;-6.04;79.10;101724.03;5012847;28;20045;-61
2021/12/29 02:32:28;;;;;;;6.80;5.95;;;;;;;-5.95;79.19;101736.78;4994860;28;20092;-56
2021/12/29 02:34:53;;;;;;;5.87;4.70;;;;;;;-6.12;78.41;101707.75;4995029;28;20500;-58
2021/12/29 02:37:20;;;;;;;5.63;4.70;;;;;;;-6.02;79.14;101719.66;5012715;28;20044;-61
2021/12/29 02:39:47;;;;;;;6.88;5.50;;;;;;;-6.14;79.45;101691.38;5012505;28;20186;-59
2021/12/29 02:42:14;;;;;;;12.75;6.95;;;;;;;-5.98;78.99;101725.63;4994568;28;20531;-55
2021/12/29 02:44:41;;;;;;;7.15;5.68;;;;;;;-5.99;79.19;101717.00;5012185;28;20053;-59
2021/12/29 02:47:09;;;;;;;8.45;5.45;;;;;;;-6.07;78.63;101705.94;5010613;28;20045;-61
2021/12/29 02:49:35;;;;;;;5.10;4.60;;;;;;;-6.10;79.30;101723.28;5012492;28;20033;-58
2021/12/29 02:52:00;;;;;;;6.43;4.83;;;;;;;-6.16;79.12;101706.13;5012756;28;20038;-59
2021/12/29 02:54:26;;;;;;;6.30;5.10;;;;;;;-6.07;79.62;101712.84;5012558;28;20046;-58
2021/12/29 02:56:54;;;;;;;6.77;5.07;;;;;;;-6.11;79.64;101714.66;5012552;28;20034;-53
2021/12/29 02:59:22;;;;;;;5.65;4.50;;;;;;;-6.10;78.95;101724.13;5012338;28;20460;-60
2021/12/29 03:01:49;;;;;;;7.00;4.80;;;;;;;-6.42;79.47;101670.38;5012395;28;20041;-57
2021/12/29 03:04:15;;;;;;;6.18;5.55;;;;;;;-6.26;79.15;101699.44;5027234;28;20073;-55
2021/12/29 03:06:40;;;;;;;4.97;4.47;;;;;;;-6.20;79.14;101701.03;4994561;28;20517;-60
2021/12/29 03:09:08;;;;;;;5.10;4.33;;;;;;;-6.17;78.79;101707.00;5012207;28;20057;-54
2021/12/29 03:11:36;;;;;;;4.95;4.35;;;;;;;-6.10;78.58;101707.72;5027478;28;20049;-57
2021/12/29 03:14:04;;;;;;;6.63;4.68;;;;;;;-6.15;78.27;101702.63;4994312;28;20532;-59
2021/12/29 03:16:32;;;;;;;6.25;5.65;;;;;;;-6.07;78.30;101716.31;5012331;28;20038;-60
2021/12/29 03:18:58;;;;;;;6.65;5.18;;;;;;;-6.13;77.84;101713.81;5012580;28;20034;-58
2021/12/29 03:21:23;;;;;;;5.70;4.73;;;;;;;-6.10;77.65;101708.56;5012173;28;20045;-59
2021/12/29 03:23:49;;;;;;;6.33;4.93;;;;;;;-6.27;77.88;101692.56;5012602;28;20040;-57
2021/12/29 03:26:16;;;;;;;7.30;5.77;;;;;;;-6.27;78.26;101692.56;5012581;28;20037;-57
2021/12/29 03:28:43;;;;;;;5.70;5.20;;;;;;;-6.16;77.44;101707.88;5012572;28;20323;-58
2021/12/29 03:31:14;;;;;;;6.70;5.43;;;;;;;-6.23;77.22;101695.94;5011878;28;20129;-59
2021/12/29 03:33:42;;;;;;;5.90;5.40;;;;;;;-6.18;77.14;101705.31;5012263;28;20096;-57
2021/12/29 03:36:08;;;;;;;4.95;4.43;;;;;;;-6.16;77.76;101700.09;5012376;28;20038;-62
2021/12/29 03:38:37;;;;;;;13.48;6.43;;;;;;;-6.23;77.38;101686.41;5016316;28;20783;-57
2021/12/29 03:41:06;;;;;;;6.72;5.05;;;;;;;-6.14;76.45;101706.94;5015830;28;20136;-57
2021/12/29 03:43:32;;;;;;;6.97;5.40;;;;;;;-6.23;76.63;101701.97;5015743;28;20037;-58
2021/12/29 03:45:58;;;;;;;10.25;6.22;;;;;;;-6.26;76.95;101702.03;5015602;28;20037;-57
2021/12/29 03:48:26;;;;;;;5.33;4.77;;;;;;;-6.21;77.31;101700.19;5015518;28;20569;-61
2021/12/29 03:50:54;;;;;;;6.15;5.43;;;;;;;-6.20;76.37;101694.13;5015848;28;20285;-57
2021/12/29 03:53:20;;;;;;;7.78;5.28;;;;;;;-6.30;76.82;101690.03;5015201;28;20080;-56
2021/12/29 03:55:48;;;;;;;6.72;5.95;;;;;;;-6.29;76.15;101689.13;5015245;28;20149;-58
2021/12/29 03:58:14;;;;;;;7.15;5.55;;;;;;;-6.37;75.98;101686.69;4998153;28;20453;-58
2021/12/29 04:00:40;;;;;;;6.43;5.47;;;;;;;-6.33;76.67;101695.28;5015326;28;20042;-60
2021/12/29 04:03:06;;;;;;;6.00;5.40;;;;;;;-6.31;76.58;101693.50;5015816;28;20038;-58
2021/12/29 04:05:32;;;;;;;6.90;5.20;;;;;;;-6.46;75.94;101673.94;5014950;28;20439;-59
2021/12/29 04:07:58;;;;;;;9.07;5.75;;;;;;;-6.30;76.08;101701.25;4997102;28;20034;-59
2021/12/29 04:10:25;;;;;;;6.18;5.50;;;;;;;-6.28;75.65;101699.47;4981084;28;20050;-57
2021/12/29 04:12:54;;;;;;;9.50;6.40;;;;;;;-6.39;75.39;101682.44;5015607;28;20045;-58
2021/12/29 04:15:20;;;;;;;8.27;7.20;;;;;;;-6.38;75.34;101689.31;5016195;28;20132;-59
2021/12/29 04:17:48;;;;;;;5.75;5.15;;;;;;;-6.38;76.12;101684.13;5017426;28;20073;-56
2021/12/29 04:23:07;;;;;;;7.60;5.75;;;;;;;-6.38;75.12;101684.97;5014194;28;20034;-59
2021/12/29 04:25:36;;;;;;;;;;;;;;;-6.37;74.99;101683.25;5015407;28;20465;-59
2021/12/29 04:28:04;;;;;;;8.88;6.30;;;;;;;-6.42;74.63;101696.31;4981705;28;19931;-60
2021/12/29 04:30:32;;;;;;;6.97;5.43;;;;;;;-6.59;74.61;101673.34;5014869;28;20516;-59
2021/12/29 04:32:57;;;;;;;8.18;6.45;;;;;;;-6.48;74.81;101680.03;4997321;28;20042;-57
2021/12/29 04:35:23;;;;;;;8.40;6.38;;;;;;;-6.50;74.60;101682.66;5017480;28;20034;-61
2021/12/29 04:37:51;;;;;;;8.97;6.30;;;;;;;-6.52;74.76;101673.22;5019109;28;20525;-59
2021/12/29 04:40:17;;;;;;;9.00;6.20;;;;;;;-6.61;75.57;101667.34;5018525;28;20034;-62
2021/12/29 04:42:43;;;;;;;6.68;5.60;;;;;;;-6.58;75.81;101684.56;5015416;28;20044;-57
2021/12/29 04:45:10;;;;;;;7.80;6.50;;;;;;;-6.60;75.39;101692.38;4998056;28;20033;-60
2021/12/29 04:47:39;;;;;;;9.50;7.10;;;;;;;-6.77;74.89;101668.53;5014293;28;20034;-55
2021/12/29 04:50:13;;;;;;;7.60;5.72;;;;;;;-6.75;75.84;101690.06;5015136;28;20045;-59
2021/12/29 04:52:39;;;;;;;8.98;6.25;;;;;;;-6.84;75.50;101679.91;5014900;28;20092;-61
2021/12/29 04:55:07;;;;;;;10.25;7.68;;;;;;;-6.79;75.19;101679.81;5014358;28;20129;-59
2021/12/29 04:57:33;;;;;;;10.55;7.45;;;;;;;-6.74;75.54;101678.84;5014465;28;20045;-60
2021/12/29 04:59:59;;;;;;;9.20;6.72;;;;;;;-6.77;75.22;101673.72;4996273;28;20486;-57
2021/12/29 05:02:24;;;;;;;7.30;5.83;;;;;;;-6.76;75.55;101680.59;5013669;28;20061;-57
2021/12/29 05:04:59;;;;;;;11.50;6.13;;;;;;;-6.79;75.15;101691.03;5014038;28;20132;-56
2021/12/29 05:10:11;;;;;;;9.02;6.90;;;;;;;-6.91;75.06;101665.38;5013971;28;20054;-59
2021/12/29 05:12:36;;;;;;;9.63;7.13;;;;;;;-6.84;74.92;101679.06;4979877;28;20044;-58
2021/12/29 05:15:04;;;;;;;8.47;7.00;;;;;;;-6.78;75.24;101684.97;5013611;28;20041;-63
2021/12/29 05:17:29;;;;;;;10.43;7.15;;;;;;;-6.74;74.71;101681.41;4979562;28;20029;-59
2021/12/29 05:19:55;;;;;;;9.90;7.13;;;;;;;-7.04;74.66;101643.19;5013511;28;20092;-60
2021/12/29 05:22:21;;;;;;;7.43;6.53;;;;;;;-6.82;74.65;101665.19;4996037;28;20042;-61
2021/12/29 05:24:46;;;;;;;10.77;7.13;;;;;;;-6.77;74.36;101663.34;5013085;28;20128;-57
2021/12/29 05:27:12;;;;;;;9.77;6.70;;;;;;;-6.67;74.39;101672.63;5013159;28;20486;-60
2021/12/29 05:29:38;;;;;;;10.00;6.53;;;;;;;-6.58;74.31;101679.38;5013042;28;20064;-60
2021/12/29 05:32:04;;;;;;;9.27;6.53;;;;;;;-6.61;74.56;101684.63;4995547;28;20045;-59
2021/12/29 05:34:30;;;;;;;11.18;6.78;;;;;;;-7.19;74.49;101572.72;5013469;28;20203;-60
2021/12/29 05:36:56;;;;;;;11.33;6.87;;;;;;;-6.62;74.35;101667.38;5012122;28;20044;-57
2021/12/29 05:39:21;;;;;;;10.40;7.50;;;;;;;-6.53;74.74;101671.50;4994940;28;20033;-56
2021/12/29 05:41:47;;;;;;;13.47;9.27;;;;;;;-7.03;74.46;101593.09;4995188;28;20038;-59
2021/12/29 05:44:13;;;;;;;9.93;7.60;;;;;;;-6.64;73.59;101675.19;4995220;28;20485;-60
2021/12/29 05:46:38;;;;;;;10.67;7.53;;;;;;;-6.71;73.64;101660.63;4995285;28;20044;-60
2021/12/29 05:49:04;;;;;;;13.00;7.90;;;;;;;-6.75;73.82;101656.41;5012746;28;20041;-61
2021/12/29 05:51:30;;;;;;;11.38;8.20;;;;;;;-6.79;75.08;101647.00;4994825;28;20030;-57
2021/12/29 05:53:55;;;;;;;13.33;8.90;;;;;;;-6.75;74.28;101665.91;5012939;28;20401;-59
2021/12/29 05:56:21;;;;;;;10.30;7.73;;;;;;;-6.73;73.95;101659.81;5013070;28;20057;-60
2021/12/29 05:58:47;;;;;;;18.93;9.07;;;;;;;-6.63;73.51;101663.94;5013002;28;20146;-62
2021/12/29 06:01:12;;;;;;;23.43;10.97;;;;;;;-6.60;73.51;101665.63;5012910;28;20099;-57
2021/12/29 06:03:39;;;;;;;17.97;9.23;;;;;;;-6.60;73.42;101650.06;5013123;28;20054;-58
2021/12/29 06:06:05;;;;;;;17.70;10.23;;;;;;;-6.59;72.88;101672.50;5013164;28;20045;-60
2021/12/29 06:08:31;;;;;;;17.40;10.33;;;;;;;-6.60;73.83;101663.88;4996267;28;20409;-57
2021/12/29 06:10:58;;;;;;;23.63;13.60;;;;;;;-6.59;73.75;101665.59;4995862;28;20053;-59
2021/12/29 06:13:24;;;;;;;18.33;10.18;;;;;;;-6.53;73.55;101669.78;5013141;28;20042;-55
2021/12/29 06:15:49;;;;;;;30.90;17.87;;;;;;;-6.54;72.67;101669.81;5013445;28;20050;-58
2021/12/29 06:18:15;;;;;;;19.67;11.83;;;;;;;-6.71;73.32;101642.50;5013074;28;20084;-58
2021/12/29 06:20:40;;;;;;;27.60;11.73;;;;;;;-6.61;72.79;101666.50;5013221;28;20041;-59
2021/12/29 06:23:08;;;;;;;21.13;11.67;;;;;;;-6.59;72.72;101652.63;5013457;28;20069;-60
2021/12/29 06:25:34;;;;;;;16.27;9.07;;;;;;;-6.59;72.59;101647.44;5013412;28;20038;-60
2021/12/29 06:27:59;;;;;;;16.75;9.50;;;;;;;-6.58;72.78;101649.16;5012738;28;20055;-56
2021/12/29 06:30:25;;;;;;;15.20;9.37;;;;;;;-6.52;73.07;101652.50;5011427;28;20042;-57
2021/12/29 06:32:52;;;;;;;16.90;10.43;;;;;;;-6.56;72.38;101649.97;5013089;28;20038;-57
2021/12/29 06:35:18;;;;;;;15.30;8.27;;;;;;;-6.57;72.23;101661.22;5011230;28;20042;-57
2021/12/29 06:37:44;;;;;;;12.73;7.97;;;;;;;-6.60;73.08;101645.75;4978494;28;20516;-62
2021/12/29 06:40:12;;;;;;;14.65;8.77;;;;;;;-6.56;72.61;101651.69;4994664;28;20273;-55
2021/12/29 06:42:38;;;;;;;14.40;7.97;;;;;;;-6.48;71.95;101664.50;4994747;28;20084;-61
2021/12/29 06:45:04;;;;;;;15.53;8.90;;;;;;;-6.82;71.99;101605.63;5012588;28;20034;-59
2021/12/29 06:47:30;;;;;;;12.95;7.85;;;;;;;-6.56;71.94;101662.06;5012997;28;20095;-58
2021/12/29 06:49:56;;;;;;;11.77;8.77;;;;;;;-6.63;72.63;101661.34;5012150;28;20445;-63
2021/12/29 06:52:22;;;;;;;15.03;8.27;;;;;;;-6.65;72.54;101676.06;5012126;28;20409;-61
2021/12/29 06:54:47;;;;;;;13.57;8.38;;;;;;;-6.73;72.65;101639.09;5012270;28;20477;-60
2021/12/29 06:57:14;;;;;;;16.90;12.07;;;;;;;-6.71;71.91;101659.78;5012825;28;20037;-56
2021/12/29 06:59:40;;;;;;;15.30;9.70;;;;;;;-6.70;72.87;101653.72;5012470;28;20048;-58
2021/12/29 07:02:06;;;;;;;13.73;9.30;;;;;;;-6.71;71.66;101647.69;5011992;28;20050;-59
2021/12/29 07:04:32;;;;;;;11.90;7.22;;;;;;;-6.62;72.21;101652.69;4994019;28;20485;-62
2021/12/29 07:06:58;;;;;;;12.40;7.70;;;;;;;-6.64;71.48;101649.28;5010750;28;20120;-56
2021/12/29 07:09:24;;;;;;;16.30;9.80;;;;;;;-6.66;71.52;101651.03;5011492;28;20065;-60
2021/12/29 07:11:51;;;;;;;11.45;8.25;;;;;;;-7.09;71.53;101577.69;4993325;28;20049;-56
2021/12/29 07:14:20;;;;;;;11.63;8.57;;;;;;;-6.57;71.15;101668.13;4995315;28;20084;-60
2021/12/29 07:16:47;;;;;;;13.82;6.80;;;;;;;-6.61;71.85;101680.31;5012327;28;20045;-56
2021/12/29 07:19:13;;;;;;;15.82;8.98;;;;;;;-6.58;71.63;101674.22;5012152;28;20398;-59
2021/12/29 07:21:39;;;;;;;15.68;8.73;;;;;;;-6.54;71.38;101675.00;5011946;28;20055;-60
2021/12/29 07:24:06;;;;;;;10.20;7.73;;;;;;;-6.58;71.20;101666.44;5011818;28;20046;-59
2021/12/29 07:26:31;;;;;;;11.10;6.95;;;;;;;-6.50;71.03;101674.88;5012615;28;20477;-61
2021/12/29 07:28:57;;;;;;;13.03;9.07;;;;;;;-6.48;71.04;101690.41;5012201;28;20044;-59
2021/12/29 07:31:23;;;;;;;15.90;10.40;;;;;;;-6.88;71.51;101611.78;5011990;28;20122;-56
2021/12/29 07:33:48;;;;;;;13.03;8.67;;;;;;;-6.47;70.80;101676.56;5012024;28;20053;-60
2021/12/29 07:36:14;;;;;;;13.30;9.57;;;;;;;-6.70;71.26;101623.47;5011945;28;20122;-54
2021/12/29 07:38:40;;;;;;;10.10;7.53;;;;;;;-6.37;70.43;101683.25;5011745;28;20056;-59
2021/12/29 07:41:06;;;;;;;12.93;8.83;;;;;;;-6.35;71.00;101663.34;5012458;28;20038;-54
2021/12/29 07:43:32;;;;;;;14.27;8.67;;;;;;;-6.39;70.49;101670.31;5012072;28;20029;-57
2021/12/29 07:45:57;;;;;;;13.53;7.50;;;;;;;-6.36;70.36;101674.59;5012077;28;20034;-56
2021/12/29 07:48:28;;;;;;;9.97;8.40;;;;;;;-6.38;70.28;101668.56;5012052;28;20030;-56
2021/12/29 07:50:54;;;;;;;12.38;8.18;;;;;;;-6.33;70.47;101671.94;5011569;28;20123;-58
2021/12/29 07:53:20;;;;;;;11.30;8.20;;;;;;;-6.32;69.91;101651.19;5012122;28;20065;-57
2021/12/29 07:55:46;;;;;;;13.38;7.93;;;;;;;-6.40;70.06;101647.03;5012054;28;20115;-60
2021/12/29 07:58:12;;;;;;;11.43;6.77;;;;;;;-6.32;70.04;101646.00;5010637;28;20565;-60
2021/12/29 08:00:37;;;;;;;10.50;7.17;;;;;;;-6.25;69.14;101651.88;5011726;28;20052;-55
2021/12/29 08:03:03;;;;;;;9.20;7.10;;;;;;;-6.28;69.96;101639.84;5011884;28;20045;-60
2021/12/29 08:05:29;;;;;;;10.80;6.57;;;;;;;-6.30;69.33;101643.38;5011700;28;20085;-59
2021/12/29 08:07:54;;;;;;;10.73;7.10;;;;;;;-6.28;69.83;101651.97;5011780;28;20026;-61
2021/12/29 08:10:20;;;;;;;10.60;6.53;;;;;;;-6.38;69.86;101627.13;5010517;28;20539;-59
2021/12/29 08:12:46;;;;;;;11.65;7.55;;;;;;;-6.33;69.37;101633.06;5011812;28;20046;-60
2021/12/29 08:15:12;;;;;;;13.73;8.10;;;;;;;-6.26;68.92;101632.88;5011604;28;20121;-56
2021/12/29 08:17:39;;;;;;;13.83;7.20;;;;;;;-6.22;68.71;101636.25;5011872;28;20485;-58
2021/12/29 08:20:07;;;;;;;15.40;9.00;;;;;;;-6.18;68.72;101640.47;5011655;28;20034;-59
2021/12/29 08:22:32;;;;;;;10.55;6.82;;;;;;;-6.15;68.05;101626.59;5012586;28;20132;-55
2021/12/29 08:24:58;;;;;;;12.07;8.00;;;;;;;-6.23;67.83;101629.38;4998075;28;20512;-56
2021/12/29 08:27:24;;;;;;;9.87;7.07;;;;;;;-6.35;67.54;101620.16;5015015;28;20037;-59
2021/12/29 08:29:49;;;;;;;13.27;7.50;;;;;;;-6.32;68.51;101614.03;5015836;28;20576;-61
2021/12/29 08:32:15;;;;;;;14.67;8.77;;;;;;;-6.18;68.96;101622.34;5015369;28;20026;-61
2021/12/29 08:34:41;;;;;;;12.43;7.80;;;;;;;-6.13;67.90;101630.00;5014915;28;20042;-57
2021/12/29 08:37:06;;;;;;;8.77;7.43;;;;;;;-6.14;67.37;101629.16;5015158;28;20034;-58
2021/12/29 08:39:32;;;;;;;11.77;6.90;;;;;;;-6.24;67.21;101604.34;5016868;28;20045;-59
2021/12/29 08:41:58;;;;;;;11.90;6.80;;;;;;;-6.27;67.04;101607.84;5017486;28;20038;-60
2021/12/29 08:44:23;;;;;;;11.13;9.30;;;;;;;-6.08;67.34;101602.22;5016820;28;20033;-56
2021/12/29 08:46:49;;;;;;;15.17;8.43;;;;;;;-6.23;66.82;101595.66;5015369;28;20042;-58
2021/12/29 08:49:15;;;;;;;14.97;7.80;;;;;;;-6.07;67.76;101604.81;5014882;28;20082;-59
2021/12/29 08:51:41;;;;;;;9.27;7.23;;;;;;;-6.15;66.84;101596.34;4997573;28;20139;-57
2021/12/29 08:54:07;;;;;;;10.50;6.85;;;;;;;-6.02;67.13;101618.50;5014859;28;20543;-57
2021/12/29 08:56:33;;;;;;;14.70;7.40;;;;;;;-5.99;66.57;101621.03;5014625;28;20120;-55
2021/12/29 08:58:58;;;;;;;10.67;6.83;;;;;;;-5.94;65.79;101626.94;5014844;28;20026;-57
2021/12/29 09:01:26;;;;;;;16.00;7.85;;;;;;;-6.04;66.25;101609.91;5014528;28;20048;-60
2021/12/29 09:03:52;;;;;;;9.35;5.88;;;;;;;-6.04;66.14;101603.88;5014847;28;20046;-59
2021/12/29 09:06:17;;;;;;;11.30;5.57;;;;;;;-6.11;65.97;101605.75;5018096;28;20402;-57
2021/12/29 09:08:45;;;;;;;10.30;6.83;;;;;;;-6.14;66.06;101592.00;5018868;28;20129;-59
2021/12/29 09:11:16;;;;;;;21.50;15.15;;;;;;;-6.05;66.27;101612.56;5001803;28;20054;-56
2021/12/29 09:13:41;;;;;;;13.90;8.10;;;;;;;-5.99;65.63;101625.38;5019101;28;20038;-60
2021/12/29 09:16:07;;;;;;;9.77;6.57;;;;;;;-6.09;66.43;101610.88;5018505;28;20091;-62
2021/12/29 09:18:35;;;;;;;7.63;6.22;;;;;;;-6.13;65.41;101607.53;5018084;28;20060;-57
2021/12/29 09:21:11;;;;;;;15.43;6.13;;;;;;;-6.11;66.01;101623.03;5016454;28;20176;-56
2021/12/29 09:23:38;;;;;;;7.47;5.80;;;;;;;-6.12;66.77;101606.63;5016654;28;20033;-58
2021/12/29 09:26:05;;;;;;;14.77;6.30;;;;;;;-6.06;65.36;101616.88;5018411;28;20045;-57
2021/12/29 09:28:31;;;;;;;9.02;6.07;;;;;;;-6.12;65.30;101598.84;5018329;28;20037;-60
2021/12/29 09:30:57;;;;;;;9.27;5.93;;;;;;;-6.18;66.08;101600.75;5017270;28;20125;-57
2021/12/29 09:33:23;;;;;;;7.82;5.30;;;;;;;-6.04;65.43;101614.25;5016927;28;20034;-56
2021/12/29 09:35:52;;;;;;;8.27;5.67;;;;;;;-6.12;65.61;101611.81;5016059;28;20073;-61
2021/12/29 09:38:18;;;;;;;;;;;;;;;-6.11;66.42;101617.84;5016808;28;20071;-60
2021/12/29 09:40:46;;;;;;;7.20;5.57;;;;;;;-6.19;66.82;101604.22;5015147;28;20016;-59
2021/12/29 09:43:11;;;;;;;9.27;6.68;;;;;;;-6.02;66.49;101618.50;5013813;28;20050;-56
2021/12/29 09:45:40;;;;;;;18.17;8.10;;;;;;;-6.01;66.64;101601.22;5013713;28;20120;-61
2021/12/29 09:48:06;;;;;;;6.88;5.72;;;;;;;-6.02;66.03;101595.16;4996442;28;20506;-57
2021/12/29 09:50:32;;;;;;;9.10;5.75;;;;;;;-5.99;66.42;101587.31;5014288;28;20038;-58
2021/12/29 09:52:58;;;;;;;7.30;5.38;;;;;;;-5.95;65.46;101582.91;5014042;28;20037;-62
2021/12/29 09:55:25;;;;;;;11.13;7.60;;;;;;;-5.87;64.67;101582.66;5013447;28;20038;-57
2021/12/29 09:57:53;;;;;;;10.20;5.78;;;;;;;-5.88;65.44;101574.03;5013578;28;20064;-59
2021/12/29 10:00:28;;;;;;;6.50;5.68;;;;;;;-5.99;65.54;101570.91;5013855;28;20464;-62
2021/12/29 10:02:57;;;;;;;7.43;5.80;;;;;;;-6.06;65.64;101575.38;4996237;28;20133;-58
2021/12/29 10:05:26;;;;;;;8.68;5.97;;;;;;;-6.03;65.87;101577.91;5013885;28;20069;-58
2021/12/29 10:08:01;;;;;;;;;;;;;;;-5.89;66.35;101587.91;5014649;28;20413;-57
2021/12/29 10:10:27;;;;;;;8.38;5.72;;;;;;;-6.08;65.69;101579.72;5013974;28;20015;-54
2021/12/29 10:12:53;;;;;;;7.90;7.10;;;;;;;-6.03;65.69;101580.50;5013146;28;20096;-57
2021/12/29 10:15:19;;;;;;;5.88;5.13;;;;;;;-6.04;64.98;101578.78;5013527;28;20049;-60
2021/12/29 10:17:44;;;;;;;7.03;5.70;;;;;;;-6.08;65.51;101559.00;5013576;28;20379;-60
2021/12/29 10:20:17;;;;;;;9.47;6.87;;;;;;;-5.93;65.16;101566.41;5013623;28;20037;-57
2021/12/29 10:22:53;;;;;;;9.25;5.65;;;;;;;-5.93;65.64;101568.16;5013188;28;20042;-56
2021/12/29 10:25:22;;;;;;;9.68;6.30;;;;;;;-5.90;65.70;101564.63;5013195;28;20041;-58
2021/12/29 10:27:48;;;;;;;12.32;6.72;;;;;;;-5.81;64.85;101574.72;5013192;28;20121;-60
2021/12/29 10:30:23;;;;;;;8.13;5.50;;;;;;;-5.88;65.00;101562.81;4995477;28;20524;-58
2021/12/29 10:32:49;;;;;;;9.13;5.80;;;;;;;-6.29;65.15;101489.53;5013195;28;20033;-60
2021/12/29 10:35:25;;;;;;;7.93;5.70;;;;;;;-5.98;65.48;101557.03;5012940;28;20408;-60
2021/12/29 10:37:53;;;;;;;5.55;4.97;;;;;;;-6.04;66.11;101550.28;5013308;28;20037;-59
2021/12/29 10:40:44;;;;;;;8.45;5.63;;;;;;;-6.01;66.03;101563.16;5013989;28;20112;-58
2021/12/29 10:43:11;;;;;;;7.57;5.40;;;;;;;-6.05;65.29;101561.53;5012199;28;20589;-58
2021/12/29 10:45:39;;;;;;;9.82;5.25;;;;;;;-6.14;65.88;101551.38;5012515;28;20052;-58
2021/12/29 10:48:21;;;;;;;8.32;5.03;;;;;;;-6.14;65.84;101561.75;5012899;28;20099;-57
2021/12/29 10:50:55;;;;;;;8.35;6.07;;;;;;;-6.11;65.98;101563.41;5013347;28;20068;-61
2021/12/29 10:53:21;;;;;;;6.03;5.07;;;;;;;-6.12;65.81;101552.19;5012975;28;20034;-59
2021/12/29 10:55:47;;;;;;;9.47;5.37;;;;;;;-6.12;65.37;101561.69;5012729;28;20394;-60
2021/12/29 10:58:17;;;;;;;7.17;5.20;;;;;;;-6.11;66.24;101556.47;5012969;28;20076;-58
2021/12/29 11:00:47;;;;;;;7.82;6.43;;;;;;;-6.19;66.08;101553.22;5012796;28;20038;-59
2021/12/29 11:03:17;;;;;;;12.90;6.93;;;;;;;-6.19;66.72;101534.22;5013342;28;20052;-62
2021/12/29 11:05:47;;;;;;;17.63;9.35;;;;;;;-6.04;66.87;101547.69;5012885;28;20087;-58
2021/12/29 11:08:14;;;;;;;12.80;7.63;;;;;;;-5.95;66.29;101555.22;5013285;28;20029;-55
2021/12/29 11:10:43;;;;;;;10.85;6.72;;;;;;;-6.04;65.94;101542.50;5012935;28;20060;-59
2021/12/29 11:13:09;;;;;;;12.48;5.07;;;;;;;-6.02;66.08;101553.69;5012888;28;20532;-57
2021/12/29 11:15:42;;;;;;;10.23;7.15;;;;;;;-6.44;66.41;101479.53;5014010;28;20410;-57
2021/12/29 11:18:12;;;;;;;17.40;8.35;;;;;;;-6.16;66.64;101527.22;5013056;28;20561;-59
2021/12/29 11:20:39;;;;;;;13.32;7.40;;;;;;;-6.06;66.59;101544.28;5027342;28;20038;-57
2021/12/29 11:23:16;;;;;;;7.45;6.05;;;;;;;-6.06;66.17;101520.94;5012416;28;20149;-61
2021/12/29 11:25:44;;;;;;;12.00;5.72;;;;;;;-6.04;66.15;101534.72;5012549;28;20034;-57